JBU287 KBOS-KLAX
Flight info
| Callsign | JBU287 |
|---|---|
| Flight time | N/A |
| Altitude | 34000 |
| Route | HYLND7 HYLND CAM Q822 FNT OBK IOW PWE/N0454F360 PUB JASSE Q90 DNERO ANJLL4 |
| Aircraft | A21N/M-SDE2E3FGHIRWXY/LB1 |
Departure
| Time | N/A |
|---|---|
| Airport | Boston Logan International Airport (KBOS) |
Arrival
| Time | 2026-04-25 00:24 |
|---|---|
| Airport | Los Angeles International Airport (KLAX) |
| Time | Latitude | Longitude | Altitude | Speed | Heading |
|---|---|---|---|---|---|
| 2026-04-24 18:54 | 43.05747 | -75.29322 | 33937 ft | 399 kts | 281° |
| 2026-04-24 18:55 | 43.06084 | -75.40743 | 33943 ft | 401 kts | 281° |
| 2026-04-24 18:56 | 43.06290 | -75.48377 | 33949 ft | 401 kts | 281° |
| 2026-04-24 18:56 | 43.06496 | -75.56015 | 33947 ft | 402 kts | 281° |
| 2026-04-24 18:57 | 43.06699 | -75.63657 | 33936 ft | 402 kts | 281° |
| 2026-04-24 18:57 | 43.06895 | -75.71256 | 33942 ft | 403 kts | 281° |
| 2026-04-24 18:58 | 43.07088 | -75.78917 | 33958 ft | 403 kts | 281° |
| 2026-04-24 18:58 | 43.07277 | -75.86586 | 33956 ft | 403 kts | 281° |
| 2026-04-24 18:59 | 43.07459 | -75.94251 | 33959 ft | 403 kts | 281° |
| 2026-04-24 18:59 | 43.07636 | -76.01914 | 33956 ft | 403 kts | 281° |
| 2026-04-24 19:00 | 43.07809 | -76.09573 | 33956 ft | 403 kts | 281° |
| 2026-04-24 19:00 | 43.07976 | -76.17235 | 33939 ft | 403 kts | 281° |
| 2026-04-24 19:01 | 43.08137 | -76.24863 | 33934 ft | 403 kts | 281° |
| 2026-04-24 19:01 | 43.08295 | -76.32544 | 33932 ft | 404 kts | 280° |
| 2026-04-24 19:02 | 43.08422 | -76.38934 | 33939 ft | 404 kts | 280° |
| 2026-04-24 19:02 | 43.08596 | -76.47930 | 33953 ft | 405 kts | 280° |
| 2026-04-24 19:03 | 43.08737 | -76.55627 | 33958 ft | 405 kts | 280° |
| 2026-04-24 19:03 | 43.08875 | -76.63306 | 33963 ft | 406 kts | 280° |
| 2026-04-24 19:04 | 43.09007 | -76.71032 | 33969 ft | 407 kts | 279° |
| 2026-04-24 19:04 | 43.09117 | -76.78779 | 33979 ft | 407 kts | 279° |
| 2026-04-24 19:05 | 43.09224 | -76.86535 | 33992 ft | 408 kts | 279° |
| 2026-04-24 19:05 | 43.09328 | -76.94315 | 33998 ft | 409 kts | 279° |
| 2026-04-24 19:06 | 43.09426 | -77.02092 | 34005 ft | 409 kts | 279° |
| 2026-04-24 19:06 | 43.09519 | -77.09892 | 34009 ft | 410 kts | 279° |
| 2026-04-24 19:07 | 43.09679 | -77.24591 | 34002 ft | 410 kts | 279° |
| 2026-04-24 19:08 | 43.09757 | -77.32420 | 33978 ft | 411 kts | 279° |
| 2026-04-24 19:08 | 43.09830 | -77.40245 | 33975 ft | 411 kts | 279° |
| 2026-04-24 19:09 | 43.09897 | -77.48076 | 33996 ft | 412 kts | 278° |
| 2026-04-24 19:09 | 43.09959 | -77.55918 | 33992 ft | 412 kts | 278° |
| 2026-04-24 19:10 | 43.10016 | -77.63752 | 33993 ft | 413 kts | 278° |
| 2026-04-24 19:10 | 43.10067 | -77.71644 | 33997 ft | 413 kts | 278° |
| 2026-04-24 19:11 | 43.10113 | -77.79516 | 33990 ft | 414 kts | 278° |
| 2026-04-24 19:11 | 43.10154 | -77.87357 | 33994 ft | 414 kts | 278° |
| 2026-04-24 19:12 | 43.10189 | -77.95273 | 33975 ft | 415 kts | 278° |
| 2026-04-24 19:12 | 43.10219 | -78.03125 | 33975 ft | 416 kts | 277° |
| 2026-04-24 19:13 | 43.10240 | -78.09714 | 33974 ft | 416 kts | 277° |
| 2026-04-24 19:13 | 43.10263 | -78.18955 | 33970 ft | 417 kts | 277° |
| 2026-04-24 19:14 | 43.10276 | -78.26945 | 33974 ft | 418 kts | 277° |
| 2026-04-24 19:14 | 43.10284 | -78.34893 | 33976 ft | 419 kts | 277° |
| 2026-04-24 19:15 | 43.10287 | -78.42827 | 33979 ft | 420 kts | 276° |
| 2026-04-24 19:15 | 43.10284 | -78.50826 | 33963 ft | 420 kts | 276° |
| 2026-04-24 19:16 | 43.10269 | -78.62842 | 33957 ft | 421 kts | 276° |
| 2026-04-24 19:16 | 43.10252 | -78.70846 | 33961 ft | 421 kts | 276° |
| 2026-04-24 19:17 | 43.10230 | -78.78849 | 33955 ft | 421 kts | 276° |
| 2026-04-24 19:17 | 43.10202 | -78.86825 | 33954 ft | 421 kts | 276° |
| 2026-04-24 19:18 | 43.10168 | -78.94884 | 33953 ft | 422 kts | 275° |
| 2026-04-24 19:18 | 43.10131 | -79.02880 | 33951 ft | 422 kts | 275° |
| 2026-04-24 19:19 | 43.10072 | -79.10921 | 33962 ft | 422 kts | 275° |
| 2026-04-24 19:19 | 43.09994 | -79.18955 | 33960 ft | 423 kts | 275° |
| 2026-04-24 19:20 | 43.09917 | -79.26976 | 33964 ft | 423 kts | 275° |
| 2026-04-24 19:20 | 43.09835 | -79.35024 | 33962 ft | 424 kts | 275° |
| 2026-04-24 19:21 | 43.09747 | -79.43107 | 33966 ft | 424 kts | 274° |
| 2026-04-24 19:21 | 43.09653 | -79.51182 | 33968 ft | 424 kts | 274° |
| 2026-04-24 19:22 | 43.09554 | -79.59237 | 33960 ft | 424 kts | 274° |
| 2026-04-24 19:22 | 43.09449 | -79.67314 | 33950 ft | 425 kts | 274° |
| 2026-04-24 19:23 | 43.09338 | -79.75393 | 33946 ft | 425 kts | 274° |
| 2026-04-24 19:23 | 43.09221 | -79.83480 | 33941 ft | 425 kts | 274° |
| 2026-04-24 19:24 | 43.09098 | -79.91562 | 33938 ft | 426 kts | 274° |
| 2026-04-24 19:24 | 43.08970 | -79.99644 | 33938 ft | 426 kts | 274° |
| 2026-04-24 19:25 | 43.08835 | -80.07773 | 33942 ft | 427 kts | 273° |
| 2026-04-24 19:25 | 43.08694 | -80.15905 | 33948 ft | 427 kts | 273° |
| 2026-04-24 19:26 | 43.08548 | -80.24023 | 33950 ft | 428 kts | 273° |
| 2026-04-24 19:26 | 43.08395 | -80.32175 | 33942 ft | 428 kts | 273° |
| 2026-04-24 19:27 | 43.08238 | -80.40264 | 33939 ft | 428 kts | 273° |
| 2026-04-24 19:27 | 43.08074 | -80.48423 | 33936 ft | 428 kts | 273° |
| 2026-04-24 19:28 | 43.07905 | -80.56529 | 33929 ft | 428 kts | 272° |
| 2026-04-24 19:28 | 43.07729 | -80.64699 | 33924 ft | 428 kts | 272° |
| 2026-04-24 19:29 | 43.07457 | -80.76871 | 33920 ft | 428 kts | 272° |
| 2026-04-24 19:30 | 43.07268 | -80.84992 | 33903 ft | 428 kts | 272° |
| 2026-04-24 19:30 | 43.07072 | -80.93144 | 33885 ft | 428 kts | 272° |
| 2026-04-24 19:31 | 43.06872 | -81.01221 | 33886 ft | 427 kts | 272° |
| 2026-04-24 19:31 | 43.06668 | -81.09354 | 33887 ft | 428 kts | 272° |
| 2026-04-24 19:32 | 43.06454 | -81.17490 | 33885 ft | 428 kts | 272° |
| 2026-04-24 19:32 | 43.06233 | -81.25623 | 33883 ft | 428 kts | 272° |
| 2026-04-24 19:33 | 43.06006 | -81.33794 | 33878 ft | 428 kts | 271° |
| 2026-04-24 19:33 | 43.05776 | -81.41912 | 33866 ft | 429 kts | 271° |
| 2026-04-24 19:34 | 43.05538 | -81.50073 | 33863 ft | 430 kts | 271° |
| 2026-04-24 19:34 | 43.05295 | -81.58223 | 33861 ft | 430 kts | 271° |
| 2026-04-24 19:35 | 43.05044 | -81.66427 | 33848 ft | 431 kts | 271° |
| 2026-04-24 19:35 | 43.04790 | -81.74580 | 33847 ft | 433 kts | 271° |
| 2026-04-24 19:36 | 43.04527 | -81.82829 | 33850 ft | 434 kts | 270° |
| 2026-04-24 19:36 | 43.04258 | -81.91076 | 33840 ft | 434 kts | 270° |
| 2026-04-24 19:37 | 43.03705 | -82.07458 | 33835 ft | 436 kts | 270° |
| 2026-04-24 19:38 | 43.03418 | -82.15699 | 33833 ft | 437 kts | 270° |
| 2026-04-24 19:38 | 43.03122 | -82.24006 | 33832 ft | 437 kts | 269° |
| 2026-04-24 19:39 | 43.02820 | -82.32354 | 33832 ft | 438 kts | 269° |
| 2026-04-24 19:39 | 43.02513 | -82.40622 | 33836 ft | 438 kts | 269° |
| 2026-04-24 19:40 | 43.02197 | -82.48938 | 33836 ft | 437 kts | 269° |
| 2026-04-24 19:40 | 43.01878 | -82.57242 | 33838 ft | 437 kts | 269° |
| 2026-04-24 19:41 | 43.01552 | -82.65537 | 33843 ft | 436 kts | 268° |
| 2026-04-24 19:41 | 43.01225 | -82.73742 | 33835 ft | 435 kts | 268° |
| 2026-04-24 19:42 | 43.00889 | -82.81987 | 33842 ft | 434 kts | 268° |
| 2026-04-24 19:42 | 43.00547 | -82.90235 | 33828 ft | 433 kts | 268° |
| 2026-04-24 19:43 | 43.00202 | -82.98431 | 33811 ft | 431 kts | 268° |
| 2026-04-24 19:43 | 42.99851 | -83.06595 | 33808 ft | 429 kts | 268° |
| 2026-04-24 19:44 | 42.99500 | -83.14668 | 33797 ft | 428 kts | 267° |
| 2026-04-24 19:44 | 42.99141 | -83.22765 | 33785 ft | 426 kts | 267° |
| 2026-04-24 19:45 | 42.98776 | -83.30851 | 33767 ft | 425 kts | 267° |
| 2026-04-24 19:45 | 42.98408 | -83.38895 | 33748 ft | 424 kts | 267° |
| 2026-04-24 19:46 | 42.98035 | -83.46928 | 33735 ft | 423 kts | 267° |
| 2026-04-24 19:46 | 42.97658 | -83.54896 | 33726 ft | 423 kts | 267° |
| 2026-04-24 19:47 | 42.97274 | -83.62905 | 33719 ft | 422 kts | 266° |
| 2026-04-24 19:47 | 42.96867 | -83.70909 | 33718 ft | 423 kts | 265° |
| 2026-04-24 19:48 | 42.96036 | -83.78858 | 33715 ft | 424 kts | 259° |
| 2026-04-24 19:48 | 42.94157 | -83.90699 | 33716 ft | 426 kts | 259° |
| 2026-04-24 19:49 | 42.91651 | -84.06509 | 33716 ft | 429 kts | 258° |
| 2026-04-24 19:50 | 42.89082 | -84.22494 | 33744 ft | 433 kts | 258° |
| 2026-04-24 19:51 | 42.87137 | -84.34494 | 33761 ft | 435 kts | 258° |
| 2026-04-24 19:52 | 42.85161 | -84.46608 | 33780 ft | 436 kts | 258° |
| 2026-04-24 19:52 | 42.83834 | -84.54693 | 33790 ft | 437 kts | 257° |
| 2026-04-24 19:53 | 42.82510 | -84.62723 | 33789 ft | 436 kts | 257° |
| 2026-04-24 19:54 | 42.80505 | -84.74814 | 33785 ft | 435 kts | 257° |
| 2026-04-24 19:54 | 42.79164 | -84.82848 | 33782 ft | 434 kts | 257° |
| 2026-04-24 19:55 | 42.78265 | -84.88215 | 33784 ft | 435 kts | 257° |
| 2026-04-24 19:55 | 42.76697 | -84.97537 | 33787 ft | 434 kts | 256° |
| 2026-04-24 19:56 | 42.75344 | -85.05532 | 33777 ft | 432 kts | 256° |
| 2026-04-24 19:56 | 42.73776 | -85.14758 | 33763 ft | 429 kts | 256° |
| 2026-04-24 19:57 | 42.72645 | -85.21380 | 33763 ft | 428 kts | 256° |
| 2026-04-24 19:57 | 42.71291 | -85.29275 | 33791 ft | 430 kts | 256° |
| 2026-04-24 19:58 | 42.69929 | -85.37190 | 33804 ft | 430 kts | 256° |
| 2026-04-24 19:58 | 42.68566 | -85.45071 | 33785 ft | 426 kts | 255° |
| 2026-04-24 19:59 | 42.67209 | -85.52881 | 33772 ft | 425 kts | 255° |
| 2026-04-24 19:59 | 42.65852 | -85.60654 | 33766 ft | 422 kts | 255° |
| 2026-04-24 20:00 | 42.64503 | -85.68347 | 33752 ft | 418 kts | 255° |
| 2026-04-24 20:00 | 42.63143 | -85.76068 | 33775 ft | 421 kts | 255° |
| 2026-04-24 20:01 | 42.61775 | -85.83803 | 33796 ft | 421 kts | 255° |
| 2026-04-24 20:01 | 42.60415 | -85.91476 | 33779 ft | 418 kts | 254° |
| 2026-04-24 20:02 | 42.59049 | -85.99137 | 33762 ft | 415 kts | 254° |
| 2026-04-24 20:02 | 42.57699 | -86.06682 | 33752 ft | 412 kts | 254° |
| 2026-04-24 20:03 | 42.56345 | -86.14219 | 33734 ft | 410 kts | 253° |
| 2026-04-24 20:03 | 42.54978 | -86.21796 | 33798 ft | 417 kts | 253° |
| 2026-04-24 20:04 | 42.53590 | -86.29458 | 33796 ft | 417 kts | 253° |
| 2026-04-24 20:04 | 42.52206 | -86.37072 | 33801 ft | 417 kts | 253° |
| 2026-04-24 20:05 | 42.50817 | -86.44680 | 33802 ft | 417 kts | 253° |
| 2026-04-24 20:05 | 42.49419 | -86.52305 | 33796 ft | 417 kts | 252° |
| 2026-04-24 20:06 | 42.48016 | -86.59922 | 33799 ft | 417 kts | 252° |
| 2026-04-24 20:06 | 42.46608 | -86.67537 | 33792 ft | 417 kts | 252° |
| 2026-04-24 20:07 | 42.45430 | -86.73883 | 33797 ft | 417 kts | 252° |
| 2026-04-24 20:07 | 42.43776 | -86.82761 | 33800 ft | 417 kts | 252° |
| 2026-04-24 20:08 | 42.42346 | -86.90407 | 33799 ft | 417 kts | 252° |
| 2026-04-24 20:08 | 42.40923 | -86.97977 | 33789 ft | 416 kts | 252° |
| 2026-04-24 20:09 | 42.39493 | -87.05560 | 33797 ft | 416 kts | 251° |
| 2026-04-24 20:09 | 42.38060 | -87.13130 | 33796 ft | 415 kts | 251° |
| 2026-04-24 20:10 | 42.36625 | -87.20674 | 33790 ft | 415 kts | 251° |
| 2026-04-24 20:10 | 42.35183 | -87.28227 | 33790 ft | 414 kts | 251° |
| 2026-04-24 20:11 | 42.33745 | -87.35730 | 33784 ft | 413 kts | 251° |
| 2026-04-24 20:11 | 42.32294 | -87.43272 | 33790 ft | 412 kts | 251° |
| 2026-04-24 20:12 | 42.30856 | -87.50721 | 33789 ft | 411 kts | 251° |
| 2026-04-24 20:12 | 42.29408 | -87.58192 | 33787 ft | 410 kts | 251° |
| 2026-04-24 20:13 | 42.27955 | -87.65659 | 33782 ft | 410 kts | 250° |
| 2026-04-24 20:13 | 42.26508 | -87.73066 | 33781 ft | 409 kts | 250° |
| 2026-04-24 20:14 | 42.25060 | -87.80459 | 33796 ft | 409 kts | 250° |
| 2026-04-24 20:14 | 42.23597 | -87.87912 | 33803 ft | 409 kts | 250° |
| 2026-04-24 20:15 | 42.22137 | -87.95326 | 33811 ft | 410 kts | 250° |
| 2026-04-24 20:15 | 42.20777 | -88.02833 | 33810 ft | 412 kts | 252° |
| 2026-04-24 20:16 | 42.19484 | -88.10380 | 33814 ft | 413 kts | 252° |
| 2026-04-24 20:16 | 42.18175 | -88.17906 | 33809 ft | 413 kts | 251° |
| 2026-04-24 20:17 | 42.16845 | -88.25460 | 33804 ft | 414 kts | 251° |
| 2026-04-24 20:17 | 42.14843 | -88.36739 | 33823 ft | 415 kts | 251° |
| 2026-04-24 20:18 | 42.13494 | -88.44303 | 33829 ft | 415 kts | 251° |
| 2026-04-24 20:18 | 42.12141 | -88.51857 | 33845 ft | 415 kts | 251° |
| 2026-04-24 20:19 | 42.10780 | -88.59421 | 33852 ft | 415 kts | 251° |
| 2026-04-24 20:19 | 42.09427 | -88.66918 | 33862 ft | 414 kts | 251° |
| 2026-04-24 20:20 | 42.08062 | -88.74447 | 33861 ft | 413 kts | 251° |
| 2026-04-24 20:20 | 42.06694 | -88.81960 | 33853 ft | 412 kts | 251° |
| 2026-04-24 20:21 | 42.05322 | -88.89465 | 33848 ft | 411 kts | 251° |
| 2026-04-24 20:21 | 42.03960 | -88.96884 | 33852 ft | 410 kts | 251° |
| 2026-04-24 20:22 | 42.02590 | -89.04327 | 33853 ft | 409 kts | 251° |
| 2026-04-24 20:22 | 42.01214 | -89.11762 | 33857 ft | 409 kts | 251° |
| 2026-04-24 20:23 | 41.99839 | -89.19171 | 33853 ft | 408 kts | 251° |
| 2026-04-24 20:23 | 41.98469 | -89.26527 | 33849 ft | 407 kts | 251° |
| 2026-04-24 20:24 | 41.97089 | -89.33903 | 33839 ft | 406 kts | 251° |
| 2026-04-24 20:24 | 41.95710 | -89.41247 | 33832 ft | 405 kts | 251° |
| 2026-04-24 20:25 | 41.94329 | -89.48578 | 33838 ft | 404 kts | 250° |
| 2026-04-24 20:25 | 41.92956 | -89.55836 | 33833 ft | 403 kts | 250° |
| 2026-04-24 20:26 | 41.91572 | -89.63131 | 33834 ft | 402 kts | 250° |
| 2026-04-24 20:26 | 41.90182 | -89.70428 | 33831 ft | 402 kts | 250° |
| 2026-04-24 20:27 | 41.88800 | -89.77654 | 33835 ft | 402 kts | 250° |
| 2026-04-24 20:27 | 41.87405 | -89.84916 | 33831 ft | 402 kts | 250° |
| 2026-04-24 20:28 | 41.86005 | -89.92183 | 33833 ft | 402 kts | 250° |
| 2026-04-24 20:28 | 41.84601 | -89.99440 | 33851 ft | 402 kts | 249° |
| 2026-04-24 20:29 | 41.83191 | -90.06703 | 33861 ft | 402 kts | 249° |
| 2026-04-24 20:29 | 41.81776 | -90.13960 | 33875 ft | 402 kts | 249° |
| 2026-04-24 20:30 | 41.80355 | -90.21222 | 33882 ft | 402 kts | 249° |
| 2026-04-24 20:30 | 41.78942 | -90.28419 | 33887 ft | 401 kts | 249° |
| 2026-04-24 20:31 | 41.77517 | -90.35653 | 33889 ft | 401 kts | 249° |
| 2026-04-24 20:31 | 41.76091 | -90.42864 | 33885 ft | 400 kts | 249° |
| 2026-04-24 20:32 | 41.74664 | -90.50054 | 33882 ft | 399 kts | 249° |
| 2026-04-24 20:32 | 41.73235 | -90.57221 | 33889 ft | 397 kts | 249° |
| 2026-04-24 20:33 | 41.71806 | -90.64364 | 33888 ft | 396 kts | 249° |
| 2026-04-24 20:33 | 41.70387 | -90.71428 | 33882 ft | 395 kts | 249° |
| 2026-04-24 20:34 | 41.68961 | -90.78508 | 33879 ft | 393 kts | 248° |
| 2026-04-24 20:34 | 41.67531 | -90.85588 | 33872 ft | 392 kts | 248° |
| 2026-04-24 20:35 | 41.66101 | -90.92636 | 33871 ft | 391 kts | 248° |
| 2026-04-24 20:35 | 41.64681 | -90.99609 | 33873 ft | 390 kts | 248° |
| 2026-04-24 20:36 | 41.63251 | -91.06610 | 33875 ft | 389 kts | 248° |
| 2026-04-24 20:36 | 41.61824 | -91.13572 | 33879 ft | 389 kts | 249° |
| 2026-04-24 20:37 | 41.60387 | -91.20562 | 33884 ft | 388 kts | 249° |
| 2026-04-24 20:37 | 41.58962 | -91.27471 | 33898 ft | 388 kts | 249° |
| 2026-04-24 20:38 | 41.57521 | -91.34435 | 33906 ft | 387 kts | 249° |
| 2026-04-24 20:38 | 41.56081 | -91.41370 | 33917 ft | 387 kts | 249° |
| 2026-04-24 20:39 | 41.54641 | -91.48283 | 33921 ft | 387 kts | 249° |
| 2026-04-24 20:39 | 41.53206 | -91.55165 | 33924 ft | 386 kts | 249° |
| 2026-04-24 20:40 | 41.51703 | -91.62048 | 33923 ft | 384 kts | 247° |
| 2026-04-24 20:40 | 41.49951 | -91.68733 | 33921 ft | 383 kts | 246° |
| 2026-04-24 20:41 | 41.48477 | -91.74331 | 33920 ft | 383 kts | 246° |
| 2026-04-24 20:41 | 41.46415 | -91.82186 | 33909 ft | 383 kts | 246° |
| 2026-04-24 20:42 | 41.44650 | -91.88883 | 33905 ft | 383 kts | 246° |
| 2026-04-24 20:42 | 41.42889 | -91.95530 | 33906 ft | 382 kts | 246° |
| 2026-04-24 20:43 | 41.41403 | -92.01123 | 33907 ft | 382 kts | 246° |
| 2026-04-24 20:43 | 41.39641 | -92.07734 | 33908 ft | 382 kts | 246° |
| 2026-04-24 20:44 | 41.37854 | -92.14425 | 33920 ft | 382 kts | 246° |
| 2026-04-24 20:44 | 41.36071 | -92.21080 | 33918 ft | 382 kts | 246° |
| 2026-04-24 20:45 | 41.34278 | -92.27753 | 33926 ft | 382 kts | 246° |
| 2026-04-24 20:45 | 41.32498 | -92.34362 | 33934 ft | 382 kts | 246° |
| 2026-04-24 20:46 | 41.30699 | -92.41022 | 33942 ft | 382 kts | 246° |
| 2026-04-24 20:46 | 41.28905 | -92.47646 | 33939 ft | 382 kts | 246° |
| 2026-04-24 20:47 | 41.27099 | -92.54297 | 33934 ft | 382 kts | 246° |
| 2026-04-24 20:47 | 41.25285 | -92.60960 | 33940 ft | 382 kts | 246° |
| 2026-04-24 20:48 | 41.23472 | -92.67606 | 33942 ft | 383 kts | 246° |
| 2026-04-24 20:48 | 41.21653 | -92.74247 | 33923 ft | 383 kts | 246° |
| 2026-04-24 20:49 | 41.19830 | -92.80892 | 33932 ft | 383 kts | 247° |
| 2026-04-24 20:49 | 41.18007 | -92.87519 | 33933 ft | 384 kts | 247° |
| 2026-04-24 20:50 | 41.16172 | -92.94169 | 33938 ft | 384 kts | 247° |
| 2026-04-24 20:50 | 41.14330 | -93.00828 | 33939 ft | 384 kts | 247° |
| 2026-04-24 20:51 | 41.12485 | -93.07478 | 33942 ft | 385 kts | 247° |
| 2026-04-24 20:51 | 41.10632 | -93.14144 | 33935 ft | 385 kts | 247° |
| 2026-04-24 20:52 | 41.08776 | -93.20800 | 33940 ft | 385 kts | 247° |
| 2026-04-24 20:52 | 41.06926 | -93.27419 | 33938 ft | 385 kts | 247° |
| 2026-04-24 20:53 | 41.05055 | -93.34093 | 33940 ft | 385 kts | 247° |
| 2026-04-24 20:53 | 41.03185 | -93.40746 | 33940 ft | 385 kts | 247° |
| 2026-04-24 20:54 | 41.01318 | -93.47373 | 33938 ft | 385 kts | 247° |
| 2026-04-24 20:54 | 40.99440 | -93.54021 | 33935 ft | 385 kts | 247° |
| 2026-04-24 20:55 | 40.97553 | -93.60684 | 33936 ft | 386 kts | 247° |
| 2026-04-24 20:55 | 40.95665 | -93.67335 | 33930 ft | 386 kts | 247° |
| 2026-04-24 20:56 | 40.93773 | -93.73981 | 33931 ft | 386 kts | 247° |
| 2026-04-24 20:56 | 40.91890 | -93.80579 | 33940 ft | 386 kts | 247° |
| 2026-04-24 20:57 | 40.89987 | -93.87227 | 33941 ft | 386 kts | 247° |
| 2026-04-24 20:57 | 40.88080 | -93.93871 | 33935 ft | 386 kts | 247° |
| 2026-04-24 20:58 | 40.86178 | -94.00485 | 33940 ft | 387 kts | 247° |
| 2026-04-24 20:58 | 40.84255 | -94.07153 | 33938 ft | 387 kts | 247° |
| 2026-04-24 20:59 | 40.82342 | -94.13770 | 33936 ft | 387 kts | 247° |
| 2026-04-24 20:59 | 40.80417 | -94.20411 | 33939 ft | 388 kts | 247° |
| 2026-04-24 21:00 | 40.78486 | -94.27054 | 33937 ft | 388 kts | 247° |
| 2026-04-24 21:00 | 40.76537 | -94.33741 | 33939 ft | 389 kts | 247° |
| 2026-04-24 21:01 | 40.74606 | -94.40354 | 33943 ft | 389 kts | 247° |
| 2026-04-24 21:01 | 40.72656 | -94.47012 | 33938 ft | 389 kts | 247° |
| 2026-04-24 21:02 | 40.70701 | -94.53672 | 33933 ft | 390 kts | 247° |
| 2026-04-24 21:02 | 40.68737 | -94.60342 | 33942 ft | 390 kts | 247° |
| 2026-04-24 21:03 | 40.66769 | -94.67012 | 33948 ft | 390 kts | 247° |
| 2026-04-24 21:03 | 40.64797 | -94.73677 | 33944 ft | 390 kts | 247° |
| 2026-04-24 21:04 | 40.62836 | -94.80286 | 33955 ft | 390 kts | 247° |
| 2026-04-24 21:04 | 40.60856 | -94.86946 | 33956 ft | 390 kts | 247° |
| 2026-04-24 21:05 | 40.58867 | -94.93620 | 33956 ft | 390 kts | 247° |
| 2026-04-24 21:05 | 40.56890 | -95.00233 | 33957 ft | 390 kts | 247° |
| 2026-04-24 21:06 | 40.54897 | -95.06887 | 33951 ft | 391 kts | 247° |
| 2026-04-24 21:06 | 40.52898 | -95.13543 | 33944 ft | 391 kts | 247° |
| 2026-04-24 21:07 | 40.50914 | -95.20131 | 33938 ft | 391 kts | 247° |
| 2026-04-24 21:07 | 40.48903 | -95.26793 | 33925 ft | 391 kts | 247° |
| 2026-04-24 21:08 | 40.46893 | -95.33434 | 33926 ft | 391 kts | 247° |
| 2026-04-24 21:08 | 40.44891 | -95.40033 | 33920 ft | 391 kts | 247° |
| 2026-04-24 21:09 | 40.42871 | -95.46677 | 33927 ft | 392 kts | 247° |
| 2026-04-24 21:09 | 40.40851 | -95.53302 | 33930 ft | 392 kts | 247° |
| 2026-04-24 21:10 | 40.38813 | -95.59972 | 33934 ft | 393 kts | 247° |
| 2026-04-24 21:10 | 40.36777 | -95.66619 | 33930 ft | 393 kts | 247° |
| 2026-04-24 21:11 | 40.34732 | -95.73276 | 33933 ft | 394 kts | 247° |
| 2026-04-24 21:11 | 40.32679 | -95.79945 | 33935 ft | 394 kts | 247° |
| 2026-04-24 21:12 | 40.30972 | -95.85475 | 33933 ft | 394 kts | 247° |
| 2026-04-24 21:12 | 40.28575 | -95.93225 | 33929 ft | 395 kts | 247° |
| 2026-04-24 21:13 | 40.26497 | -95.99922 | 33929 ft | 395 kts | 247° |
| 2026-04-24 21:13 | 40.24420 | -96.06604 | 33924 ft | 396 kts | 247° |
| 2026-04-24 21:14 | 40.22352 | -96.13249 | 33919 ft | 397 kts | 247° |
| 2026-04-24 21:14 | 40.20303 | -96.19977 | 33925 ft | 397 kts | 250° |
| 2026-04-24 21:15 | 40.18815 | -96.26965 | 33916 ft | 399 kts | 255° |
| 2026-04-24 21:15 | 40.17475 | -96.33967 | 33924 ft | 400 kts | 255° |
| 2026-04-24 21:16 | 40.16160 | -96.41031 | 33922 ft | 401 kts | 255° |
| 2026-04-24 21:16 | 40.14848 | -96.48132 | 33920 ft | 401 kts | 255° |
| 2026-04-24 21:17 | 40.13533 | -96.55233 | 33934 ft | 402 kts | 255° |
| 2026-04-24 21:17 | 40.12433 | -96.61143 | 33935 ft | 402 kts | 255° |
| 2026-04-24 21:18 | 40.10889 | -96.69414 | 33942 ft | 403 kts | 255° |
| 2026-04-24 21:18 | 40.09556 | -96.76522 | 33936 ft | 403 kts | 256° |
| 2026-04-24 21:19 | 40.08218 | -96.83639 | 33936 ft | 403 kts | 256° |
| 2026-04-24 21:19 | 40.06949 | -96.90356 | 33932 ft | 403 kts | 256° |
| 2026-04-24 21:20 | 40.04928 | -97.01018 | 33926 ft | 403 kts | 256° |
| 2026-04-24 21:21 | 40.03572 | -97.08138 | 33924 ft | 403 kts | 256° |
| 2026-04-24 21:21 | 40.02215 | -97.15238 | 33915 ft | 403 kts | 256° |
| 2026-04-24 21:22 | 40.00854 | -97.22332 | 33914 ft | 403 kts | 256° |
| 2026-04-24 21:22 | 39.99492 | -97.29393 | 33912 ft | 403 kts | 256° |
| 2026-04-24 21:23 | 39.98118 | -97.36489 | 33914 ft | 403 kts | 256° |
| 2026-04-24 21:23 | 39.96736 | -97.43590 | 33921 ft | 403 kts | 256° |
| 2026-04-24 21:24 | 39.95348 | -97.50693 | 33916 ft | 404 kts | 256° |
| 2026-04-24 21:24 | 39.93965 | -97.57753 | 33917 ft | 404 kts | 256° |
| 2026-04-24 21:25 | 39.92571 | -97.64843 | 33919 ft | 404 kts | 256° |
| 2026-04-24 21:25 | 39.91169 | -97.71949 | 33916 ft | 404 kts | 256° |
| 2026-04-24 21:26 | 39.89773 | -97.78999 | 33916 ft | 404 kts | 256° |
| 2026-04-24 21:26 | 39.88363 | -97.86096 | 33914 ft | 404 kts | 256° |
| 2026-04-24 21:27 | 39.86947 | -97.93196 | 33916 ft | 404 kts | 256° |
| 2026-04-24 21:27 | 39.85529 | -98.00289 | 33913 ft | 405 kts | 256° |
| 2026-04-24 21:28 | 39.84106 | -98.07375 | 33907 ft | 405 kts | 256° |
| 2026-04-24 21:28 | 39.82689 | -98.14410 | 33915 ft | 405 kts | 256° |
| 2026-04-24 21:29 | 39.81259 | -98.21488 | 33916 ft | 404 kts | 256° |
| 2026-04-24 21:29 | 39.79822 | -98.28571 | 33911 ft | 404 kts | 257° |
| 2026-04-24 21:30 | 39.78383 | -98.35645 | 33912 ft | 404 kts | 257° |
| 2026-04-24 21:30 | 39.76946 | -98.42681 | 33908 ft | 404 kts | 257° |
| 2026-04-24 21:31 | 39.75735 | -98.48594 | 33905 ft | 404 kts | 257° |
| 2026-04-24 21:31 | 39.74285 | -98.55650 | 33903 ft | 404 kts | 257° |
| 2026-04-24 21:32 | 39.72840 | -98.62660 | 33905 ft | 404 kts | 257° |
| 2026-04-24 21:32 | 39.71383 | -98.69703 | 33904 ft | 404 kts | 257° |
| 2026-04-24 21:33 | 39.69920 | -98.76749 | 33896 ft | 404 kts | 257° |
| 2026-04-24 21:33 | 39.68452 | -98.83802 | 33893 ft | 404 kts | 257° |
| 2026-04-24 21:34 | 39.66989 | -98.90804 | 33892 ft | 404 kts | 256° |
| 2026-04-24 21:34 | 39.65514 | -98.97843 | 33894 ft | 404 kts | 256° |
| 2026-04-24 21:35 | 39.64034 | -99.04881 | 33892 ft | 404 kts | 256° |
| 2026-04-24 21:35 | 39.62547 | -99.11927 | 33898 ft | 404 kts | 256° |
| 2026-04-24 21:36 | 39.61055 | -99.18974 | 33907 ft | 405 kts | 256° |
| 2026-04-24 21:36 | 39.59558 | -99.26021 | 33907 ft | 405 kts | 256° |
| 2026-04-24 21:37 | 39.58067 | -99.33020 | 33904 ft | 405 kts | 256° |
| 2026-04-24 21:37 | 39.56561 | -99.40065 | 33905 ft | 405 kts | 256° |
| 2026-04-24 21:38 | 39.55049 | -99.47112 | 33904 ft | 405 kts | 256° |
| 2026-04-24 21:38 | 39.53531 | -99.54168 | 33901 ft | 405 kts | 256° |
| 2026-04-24 21:39 | 39.52016 | -99.61185 | 33901 ft | 405 kts | 256° |
| 2026-04-24 21:39 | 39.50494 | -99.68210 | 33905 ft | 405 kts | 256° |
| 2026-04-24 21:40 | 39.48971 | -99.75223 | 33908 ft | 405 kts | 256° |
| 2026-04-24 21:40 | 39.47439 | -99.82248 | 33911 ft | 405 kts | 256° |
| 2026-04-24 21:41 | 39.45905 | -99.89262 | 33912 ft | 405 kts | 256° |
| 2026-04-24 21:41 | 39.44367 | -99.96275 | 33908 ft | 405 kts | 256° |
| 2026-04-24 21:42 | 39.42836 | -100.03230 | 33899 ft | 404 kts | 256° |
| 2026-04-24 21:42 | 39.41292 | -100.10222 | 33892 ft | 404 kts | 256° |
| 2026-04-24 21:43 | 39.39744 | -100.17215 | 33885 ft | 403 kts | 256° |
| 2026-04-24 21:43 | 39.38202 | -100.24161 | 33871 ft | 403 kts | 256° |
| 2026-04-24 21:44 | 39.36658 | -100.31086 | 33856 ft | 402 kts | 256° |
| 2026-04-24 21:44 | 39.35107 | -100.38024 | 33855 ft | 401 kts | 256° |
| 2026-04-24 21:45 | 39.33554 | -100.44952 | 33851 ft | 401 kts | 256° |
| 2026-04-24 21:45 | 39.31997 | -100.51874 | 33850 ft | 400 kts | 256° |
| 2026-04-24 21:46 | 39.30444 | -100.58751 | 33847 ft | 399 kts | 256° |
| 2026-04-24 21:46 | 39.28889 | -100.65622 | 33852 ft | 399 kts | 256° |
| 2026-04-24 21:47 | 39.27340 | -100.72446 | 33850 ft | 398 kts | 256° |
| 2026-04-24 21:47 | 39.25773 | -100.79326 | 33851 ft | 397 kts | 256° |
| 2026-04-24 21:48 | 39.24216 | -100.86141 | 33851 ft | 397 kts | 256° |
| 2026-04-24 21:48 | 39.22658 | -100.92944 | 33850 ft | 396 kts | 256° |
| 2026-04-24 21:49 | 39.21100 | -100.99726 | 33844 ft | 395 kts | 256° |
| 2026-04-24 21:49 | 39.19531 | -101.06534 | 33839 ft | 395 kts | 256° |
| 2026-04-24 21:50 | 39.17971 | -101.13283 | 33833 ft | 394 kts | 256° |
| 2026-04-24 21:50 | 39.16397 | -101.20075 | 33828 ft | 393 kts | 256° |
| 2026-04-24 21:51 | 39.14837 | -101.26783 | 33817 ft | 393 kts | 256° |
| 2026-04-24 21:51 | 39.13265 | -101.33530 | 33812 ft | 392 kts | 256° |
| 2026-04-24 21:52 | 39.11698 | -101.40228 | 33813 ft | 391 kts | 256° |
| 2026-04-24 21:52 | 39.10130 | -101.46917 | 33815 ft | 390 kts | 256° |
| 2026-04-24 21:53 | 39.08558 | -101.53599 | 33817 ft | 389 kts | 256° |
| 2026-04-24 21:53 | 39.06994 | -101.60233 | 33812 ft | 388 kts | 256° |
| 2026-04-24 21:54 | 39.05418 | -101.66896 | 33806 ft | 387 kts | 256° |
| 2026-04-24 21:54 | 39.03852 | -101.73494 | 33800 ft | 385 kts | 256° |
| 2026-04-24 21:55 | 39.02289 | -101.80065 | 33789 ft | 384 kts | 256° |
| 2026-04-24 21:55 | 39.00728 | -101.86609 | 33783 ft | 383 kts | 256° |
| 2026-04-24 21:56 | 38.99170 | -101.93126 | 33780 ft | 381 kts | 256° |
| 2026-04-24 21:56 | 38.97612 | -101.99617 | 33773 ft | 380 kts | 257° |
| 2026-04-24 21:57 | 38.96053 | -102.06097 | 33773 ft | 379 kts | 257° |
| 2026-04-24 21:57 | 38.94496 | -102.12555 | 33773 ft | 378 kts | 257° |
| 2026-04-24 21:58 | 38.92935 | -102.19008 | 33765 ft | 377 kts | 257° |
| 2026-04-24 21:58 | 38.91376 | -102.25441 | 33760 ft | 377 kts | 257° |
| 2026-04-24 21:59 | 38.89818 | -102.31850 | 33748 ft | 377 kts | 257° |
| 2026-04-24 21:59 | 38.88255 | -102.38261 | 33743 ft | 376 kts | 257° |
| 2026-04-24 22:00 | 38.86690 | -102.44664 | 33742 ft | 377 kts | 257° |
| 2026-04-24 22:00 | 38.85109 | -102.51112 | 33738 ft | 377 kts | 257° |
| 2026-04-24 22:01 | 38.83539 | -102.57502 | 33742 ft | 377 kts | 257° |
| 2026-04-24 22:01 | 38.81958 | -102.63924 | 33742 ft | 378 kts | 257° |
| 2026-04-24 22:02 | 38.80371 | -102.70347 | 33746 ft | 378 kts | 257° |
| 2026-04-24 22:02 | 38.78776 | -102.76792 | 33747 ft | 379 kts | 256° |
| 2026-04-24 22:03 | 38.77187 | -102.83196 | 33748 ft | 379 kts | 256° |
| 2026-04-24 22:03 | 38.75581 | -102.89653 | 33750 ft | 379 kts | 256° |
| 2026-04-24 22:04 | 38.73978 | -102.96073 | 33747 ft | 380 kts | 256° |
| 2026-04-24 22:04 | 38.72361 | -103.02529 | 33752 ft | 380 kts | 256° |
| 2026-04-24 22:05 | 38.70751 | -103.08947 | 33753 ft | 380 kts | 256° |
| 2026-04-24 22:05 | 38.69129 | -103.15390 | 33759 ft | 380 kts | 256° |
| 2026-04-24 22:06 | 38.67512 | -103.21797 | 33749 ft | 380 kts | 256° |
| 2026-04-24 22:06 | 38.65887 | -103.28217 | 33744 ft | 379 kts | 256° |
| 2026-04-24 22:07 | 38.64252 | -103.34662 | 33745 ft | 379 kts | 256° |
| 2026-04-24 22:07 | 38.62628 | -103.41048 | 33741 ft | 379 kts | 256° |
| 2026-04-24 22:08 | 38.60995 | -103.47451 | 33736 ft | 378 kts | 256° |
| 2026-04-24 22:08 | 38.59365 | -103.53826 | 33730 ft | 378 kts | 256° |
| 2026-04-24 22:09 | 38.57723 | -103.60234 | 33722 ft | 378 kts | 256° |
| 2026-04-24 22:09 | 38.56095 | -103.66567 | 33722 ft | 378 kts | 256° |
| 2026-04-24 22:10 | 38.54449 | -103.72954 | 33718 ft | 377 kts | 256° |
| 2026-04-24 22:10 | 38.52805 | -103.79319 | 33715 ft | 377 kts | 256° |
| 2026-04-24 22:11 | 38.51162 | -103.85662 | 33714 ft | 376 kts | 256° |
| 2026-04-24 22:11 | 38.49525 | -103.91965 | 33711 ft | 376 kts | 256° |
| 2026-04-24 22:12 | 38.47873 | -103.98309 | 33703 ft | 375 kts | 256° |
| 2026-04-24 22:12 | 38.46227 | -104.04619 | 33703 ft | 375 kts | 256° |
| 2026-04-24 22:13 | 38.44580 | -104.10913 | 33699 ft | 374 kts | 256° |
| 2026-04-24 22:13 | 38.42928 | -104.17213 | 33703 ft | 374 kts | 256° |
| 2026-04-24 22:14 | 38.41279 | -104.23489 | 33715 ft | 373 kts | 255° |
| 2026-04-24 22:14 | 38.39616 | -104.29798 | 33723 ft | 373 kts | 255° |
| 2026-04-24 22:15 | 38.37967 | -104.36037 | 33735 ft | 373 kts | 255° |
| 2026-04-24 22:15 | 38.36309 | -104.42300 | 33747 ft | 372 kts | 255° |
| 2026-04-24 22:16 | 38.34647 | -104.48557 | 33744 ft | 372 kts | 255° |
| 2026-04-24 22:16 | 38.32994 | -104.54769 | 33749 ft | 371 kts | 255° |
| 2026-04-24 22:17 | 38.31339 | -104.60974 | 33744 ft | 371 kts | 255° |
| 2026-04-24 22:17 | 38.29954 | -104.66154 | 33731 ft | 371 kts | 255° |
| 2026-04-24 22:18 | 38.28014 | -104.73395 | 33712 ft | 370 kts | 255° |
| 2026-04-24 22:18 | 38.26624 | -104.78567 | 33720 ft | 370 kts | 255° |
| 2026-04-24 22:19 | 38.24956 | -104.84765 | 33715 ft | 370 kts | 255° |
| 2026-04-24 22:19 | 38.23280 | -104.90973 | 33704 ft | 370 kts | 255° |
| 2026-04-24 22:20 | 38.21615 | -104.97126 | 33719 ft | 370 kts | 255° |
| 2026-04-24 22:20 | 38.19937 | -105.03313 | 33717 ft | 370 kts | 255° |
| 2026-04-24 22:21 | 38.18245 | -105.09541 | 33729 ft | 371 kts | 255° |
| 2026-04-24 22:21 | 38.16560 | -105.15723 | 33743 ft | 371 kts | 255° |
| 2026-04-24 22:22 | 38.14871 | -105.21902 | 33760 ft | 372 kts | 255° |
| 2026-04-24 22:22 | 38.13172 | -105.28111 | 33772 ft | 372 kts | 255° |
| 2026-04-24 22:23 | 38.11464 | -105.34330 | 33787 ft | 373 kts | 255° |
| 2026-04-24 22:23 | 38.09758 | -105.40530 | 33800 ft | 373 kts | 255° |
| 2026-04-24 22:24 | 38.08043 | -105.46748 | 33799 ft | 373 kts | 255° |
| 2026-04-24 22:24 | 38.06324 | -105.52966 | 33797 ft | 372 kts | 255° |
| 2026-04-24 22:25 | 38.04625 | -105.59090 | 33793 ft | 369 kts | 254° |
| 2026-04-24 22:25 | 38.02924 | -105.65209 | 33769 ft | 368 kts | 255° |
| 2026-04-24 22:26 | 38.01216 | -105.71355 | 33776 ft | 368 kts | 255° |
| 2026-04-24 22:26 | 37.99518 | -105.77445 | 33770 ft | 368 kts | 254° |
| 2026-04-24 22:27 | 37.97802 | -105.83580 | 33762 ft | 367 kts | 254° |
| 2026-04-24 22:27 | 37.96103 | -105.89641 | 33747 ft | 366 kts | 254° |
| 2026-04-24 22:28 | 37.94394 | -105.95719 | 33741 ft | 366 kts | 254° |
| 2026-04-24 22:28 | 37.92696 | -106.01750 | 33751 ft | 365 kts | 254° |
| 2026-04-24 22:29 | 37.90117 | -106.10882 | 33807 ft | 365 kts | 254° |
| 2026-04-24 22:29 | 37.88411 | -106.16905 | 33843 ft | 365 kts | 254° |
| 2026-04-24 22:30 | 37.86693 | -106.22954 | 33880 ft | 365 kts | 254° |
| 2026-04-24 22:30 | 37.84975 | -106.28989 | 33907 ft | 365 kts | 254° |
| 2026-04-24 22:31 | 37.83239 | -106.35076 | 33928 ft | 366 kts | 254° |
| 2026-04-24 22:31 | 37.81513 | -106.41113 | 33946 ft | 365 kts | 254° |
| 2026-04-24 22:32 | 37.79783 | -106.47153 | 33934 ft | 366 kts | 254° |
| 2026-04-24 22:32 | 37.78055 | -106.53171 | 33932 ft | 366 kts | 254° |
| 2026-04-24 22:33 | 37.76307 | -106.59244 | 33925 ft | 366 kts | 254° |
| 2026-04-24 22:33 | 37.74573 | -106.65253 | 33924 ft | 366 kts | 254° |
| 2026-04-24 22:34 | 37.72832 | -106.71275 | 33918 ft | 365 kts | 254° |
| 2026-04-24 22:34 | 37.71095 | -106.77271 | 33903 ft | 364 kts | 254° |
| 2026-04-24 22:35 | 37.69350 | -106.83281 | 33900 ft | 364 kts | 254° |
| 2026-04-24 22:35 | 37.67607 | -106.89271 | 33903 ft | 362 kts | 254° |
| 2026-04-24 22:36 | 37.65864 | -106.95246 | 33900 ft | 362 kts | 254° |
| 2026-04-24 22:36 | 37.64122 | -107.01210 | 33908 ft | 362 kts | 254° |
| 2026-04-24 22:37 | 37.62382 | -107.07151 | 33899 ft | 361 kts | 253° |
| 2026-04-24 22:37 | 37.60639 | -107.13095 | 33911 ft | 361 kts | 254° |
| 2026-04-24 22:38 | 37.58895 | -107.19028 | 33911 ft | 362 kts | 254° |
| 2026-04-24 22:38 | 37.57138 | -107.24988 | 33917 ft | 362 kts | 253° |
| 2026-04-24 22:39 | 37.55384 | -107.30926 | 33924 ft | 362 kts | 253° |
| 2026-04-24 22:39 | 37.53619 | -107.36875 | 33902 ft | 361 kts | 253° |
| 2026-04-24 22:40 | 37.51858 | -107.42818 | 33902 ft | 362 kts | 253° |
| 2026-04-24 22:40 | 37.50097 | -107.48738 | 33920 ft | 362 kts | 253° |
| 2026-04-24 22:41 | 37.48327 | -107.54679 | 33917 ft | 363 kts | 253° |
| 2026-04-24 22:41 | 37.46552 | -107.60617 | 33905 ft | 362 kts | 253° |
| 2026-04-24 22:42 | 37.44778 | -107.66542 | 33920 ft | 363 kts | 253° |
| 2026-04-24 22:42 | 37.42999 | -107.72477 | 33941 ft | 363 kts | 253° |
| 2026-04-24 22:43 | 37.41218 | -107.78398 | 33933 ft | 363 kts | 253° |
| 2026-04-24 22:43 | 37.39428 | -107.84342 | 33931 ft | 363 kts | 253° |
| 2026-04-24 22:44 | 37.37641 | -107.90257 | 33906 ft | 361 kts | 253° |
| 2026-04-24 22:44 | 37.35858 | -107.96149 | 33898 ft | 359 kts | 253° |
| 2026-04-24 22:45 | 37.34077 | -108.02022 | 33878 ft | 359 kts | 253° |
| 2026-04-24 22:45 | 37.32293 | -108.07897 | 33866 ft | 359 kts | 253° |
| 2026-04-24 22:46 | 37.30522 | -108.13713 | 33851 ft | 359 kts | 253° |
| 2026-04-24 22:46 | 37.28734 | -108.19577 | 33854 ft | 360 kts | 253° |
| 2026-04-24 22:47 | 37.26938 | -108.25456 | 33856 ft | 361 kts | 253° |
| 2026-04-24 22:47 | 37.25132 | -108.31355 | 33881 ft | 362 kts | 253° |
| 2026-04-24 22:48 | 37.23318 | -108.37267 | 33892 ft | 364 kts | 253° |
| 2026-04-24 22:48 | 37.21496 | -108.43191 | 33906 ft | 364 kts | 253° |
| 2026-04-24 22:49 | 37.19682 | -108.49068 | 33921 ft | 363 kts | 253° |
| 2026-04-24 22:49 | 37.17856 | -108.54977 | 33930 ft | 363 kts | 253° |
| 2026-04-24 22:50 | 37.16030 | -108.60878 | 33920 ft | 363 kts | 253° |
| 2026-04-24 22:50 | 37.14198 | -108.66779 | 33899 ft | 363 kts | 253° |
| 2026-04-24 22:51 | 37.12365 | -108.72674 | 33875 ft | 362 kts | 253° |
| 2026-04-24 22:51 | 37.10534 | -108.78555 | 33845 ft | 362 kts | 253° |
| 2026-04-24 22:52 | 37.08711 | -108.84394 | 33813 ft | 362 kts | 253° |
| 2026-04-24 22:52 | 37.06873 | -108.90270 | 33784 ft | 362 kts | 253° |
| 2026-04-24 22:53 | 37.05044 | -108.96106 | 33755 ft | 362 kts | 253° |
| 2026-04-24 22:53 | 37.03187 | -109.02019 | 33755 ft | 363 kts | 253° |
| 2026-04-24 22:54 | 37.01351 | -109.07853 | 33746 ft | 363 kts | 252° |
| 2026-04-24 22:54 | 36.99495 | -109.13740 | 33748 ft | 364 kts | 252° |
| 2026-04-24 22:55 | 36.97626 | -109.19652 | 33759 ft | 365 kts | 252° |
| 2026-04-24 22:55 | 36.95747 | -109.25585 | 33758 ft | 366 kts | 252° |
| 2026-04-24 22:56 | 36.93875 | -109.31485 | 33762 ft | 366 kts | 252° |
| 2026-04-24 22:56 | 36.91993 | -109.37402 | 33748 ft | 367 kts | 252° |
| 2026-04-24 22:57 | 36.90104 | -109.43331 | 33753 ft | 368 kts | 252° |
| 2026-04-24 22:57 | 36.88213 | -109.49255 | 33757 ft | 369 kts | 252° |
| 2026-04-24 22:58 | 36.86301 | -109.55231 | 33755 ft | 369 kts | 252° |
| 2026-04-24 22:58 | 36.84397 | -109.61170 | 33749 ft | 370 kts | 252° |
| 2026-04-24 22:59 | 36.82483 | -109.67126 | 33756 ft | 370 kts | 252° |
| 2026-04-24 23:00 | 36.79588 | -109.76112 | 33756 ft | 371 kts | 252° |
| 2026-04-24 23:00 | 36.77670 | -109.82052 | 33752 ft | 371 kts | 252° |
| 2026-04-24 23:01 | 36.75736 | -109.88031 | 33749 ft | 372 kts | 252° |
| 2026-04-24 23:01 | 36.73798 | -109.94009 | 33758 ft | 372 kts | 252° |
| 2026-04-24 23:02 | 36.71851 | -110.00000 | 33757 ft | 373 kts | 252° |
| 2026-04-24 23:02 | 36.69900 | -110.05992 | 33762 ft | 373 kts | 252° |
| 2026-04-24 23:03 | 36.67946 | -110.11985 | 33766 ft | 373 kts | 252° |
| 2026-04-24 23:03 | 36.65994 | -110.17956 | 33769 ft | 374 kts | 252° |
| 2026-04-24 23:04 | 36.64029 | -110.23953 | 33772 ft | 374 kts | 252° |
| 2026-04-24 23:04 | 36.62067 | -110.29931 | 33777 ft | 372 kts | 251° |
| 2026-04-24 23:05 | 36.60103 | -110.35901 | 33765 ft | 373 kts | 252° |
| 2026-04-24 23:05 | 36.58467 | -110.40874 | 33769 ft | 374 kts | 252° |
| 2026-04-24 23:06 | 36.56486 | -110.46874 | 33769 ft | 374 kts | 252° |
| 2026-04-24 23:06 | 36.54495 | -110.52894 | 33775 ft | 376 kts | 251° |
| 2026-04-24 23:07 | 36.52507 | -110.58891 | 33780 ft | 377 kts | 251° |
| 2026-04-24 23:07 | 36.50503 | -110.64923 | 33790 ft | 378 kts | 251° |
| 2026-04-24 23:08 | 36.48487 | -110.70978 | 33788 ft | 378 kts | 251° |
| 2026-04-24 23:08 | 36.46483 | -110.76985 | 33782 ft | 379 kts | 251° |
| 2026-04-24 23:09 | 36.44463 | -110.83030 | 33786 ft | 379 kts | 251° |
| 2026-04-24 23:09 | 36.42437 | -110.89079 | 33777 ft | 378 kts | 251° |
| 2026-04-24 23:10 | 36.40413 | -110.95111 | 33776 ft | 378 kts | 251° |
| 2026-04-24 23:10 | 36.38401 | -111.01095 | 33772 ft | 377 kts | 251° |
| 2026-04-24 23:11 | 36.36375 | -111.07112 | 33772 ft | 377 kts | 251° |
| 2026-04-24 23:11 | 36.34347 | -111.13118 | 33769 ft | 377 kts | 251° |
| 2026-04-24 23:12 | 36.32315 | -111.19125 | 33765 ft | 377 kts | 251° |
| 2026-04-24 23:12 | 36.30292 | -111.25093 | 33765 ft | 377 kts | 251° |
| 2026-04-24 23:13 | 36.28254 | -111.31093 | 33769 ft | 378 kts | 251° |
| 2026-04-24 23:13 | 36.26210 | -111.37101 | 33764 ft | 378 kts | 251° |
| 2026-04-24 23:14 | 36.24161 | -111.43111 | 33772 ft | 378 kts | 251° |
| 2026-04-24 23:14 | 36.22111 | -111.49111 | 33778 ft | 378 kts | 251° |
| 2026-04-24 23:15 | 36.20057 | -111.55112 | 33783 ft | 379 kts | 251° |
| 2026-04-24 23:15 | 36.17994 | -111.61127 | 33787 ft | 379 kts | 251° |
| 2026-04-24 23:16 | 36.15938 | -111.67109 | 33802 ft | 380 kts | 250° |
| 2026-04-24 23:16 | 36.13872 | -111.73106 | 33831 ft | 378 kts | 250° |
| 2026-04-24 23:17 | 36.11795 | -111.79122 | 33833 ft | 378 kts | 250° |
| 2026-04-24 23:17 | 36.09736 | -111.85078 | 33874 ft | 378 kts | 251° |
| 2026-04-24 23:18 | 36.07666 | -111.91054 | 33913 ft | 378 kts | 251° |
| 2026-04-24 23:18 | 36.05592 | -111.97035 | 33931 ft | 379 kts | 250° |
| 2026-04-24 23:19 | 36.03512 | -112.03016 | 33956 ft | 378 kts | 250° |
| 2026-04-24 23:19 | 36.01434 | -112.08982 | 33966 ft | 377 kts | 250° |
| 2026-04-24 23:20 | 35.99355 | -112.14935 | 33975 ft | 378 kts | 250° |
| 2026-04-24 23:20 | 35.97283 | -112.20859 | 33973 ft | 378 kts | 250° |
| 2026-04-24 23:21 | 35.95196 | -112.26815 | 33969 ft | 378 kts | 250° |
| 2026-04-24 23:21 | 35.93102 | -112.32777 | 33947 ft | 378 kts | 250° |
| 2026-04-24 23:22 | 35.91009 | -112.38729 | 33926 ft | 378 kts | 250° |
| 2026-04-24 23:22 | 35.88909 | -112.44687 | 33897 ft | 378 kts | 250° |
| 2026-04-24 23:23 | 35.86809 | -112.50636 | 33874 ft | 378 kts | 250° |
| 2026-04-24 23:23 | 35.84719 | -112.56550 | 33844 ft | 378 kts | 250° |
| 2026-04-24 23:24 | 35.82614 | -112.62497 | 33840 ft | 378 kts | 250° |
| 2026-04-24 23:24 | 35.80506 | -112.68445 | 33840 ft | 378 kts | 250° |
| 2026-04-24 23:25 | 35.78394 | -112.74388 | 33848 ft | 378 kts | 250° |
| 2026-04-24 23:25 | 35.76279 | -112.80328 | 33841 ft | 378 kts | 250° |
| 2026-04-24 23:26 | 35.74161 | -112.86267 | 33844 ft | 379 kts | 250° |
| 2026-04-24 23:26 | 35.72052 | -112.92170 | 33842 ft | 379 kts | 250° |
| 2026-04-24 23:27 | 35.69925 | -112.98108 | 33835 ft | 378 kts | 250° |
| 2026-04-24 23:27 | 35.67810 | -113.04004 | 33834 ft | 379 kts | 249° |
| 2026-04-24 23:28 | 35.65676 | -113.09944 | 33833 ft | 378 kts | 249° |
| 2026-04-24 23:28 | 35.63546 | -113.15859 | 33825 ft | 379 kts | 249° |
| 2026-04-24 23:29 | 35.61398 | -113.21765 | 33826 ft | 378 kts | 250° |
| 2026-04-24 23:29 | 35.59353 | -113.27727 | 33813 ft | 378 kts | 250° |
| 2026-04-24 23:30 | 35.57324 | -113.33675 | 33810 ft | 377 kts | 251° |
| 2026-04-24 23:30 | 35.55343 | -113.39649 | 33802 ft | 377 kts | 251° |
| 2026-04-24 23:31 | 35.53356 | -113.45590 | 33797 ft | 378 kts | 250° |
| 2026-04-24 23:31 | 35.51352 | -113.51546 | 33789 ft | 378 kts | 250° |
| 2026-04-24 23:32 | 35.49349 | -113.57486 | 33788 ft | 378 kts | 250° |
| 2026-04-24 23:32 | 35.47337 | -113.63438 | 33793 ft | 377 kts | 250° |
| 2026-04-24 23:33 | 35.45323 | -113.69386 | 33803 ft | 377 kts | 250° |
| 2026-04-24 23:33 | 35.43304 | -113.75340 | 33824 ft | 378 kts | 250° |
| 2026-04-24 23:34 | 35.41283 | -113.81288 | 33843 ft | 378 kts | 250° |
| 2026-04-24 23:34 | 35.39269 | -113.87200 | 33860 ft | 378 kts | 250° |
| 2026-04-24 23:35 | 35.37237 | -113.93156 | 33874 ft | 378 kts | 250° |
| 2026-04-24 23:35 | 35.35210 | -113.99087 | 33877 ft | 378 kts | 250° |
| 2026-04-24 23:36 | 35.33170 | -114.05041 | 33877 ft | 378 kts | 250° |
| 2026-04-24 23:36 | 35.31135 | -114.10974 | 33854 ft | 379 kts | 250° |
| 2026-04-24 23:37 | 35.29087 | -114.16928 | 33845 ft | 379 kts | 250° |
| 2026-04-24 23:37 | 35.26015 | -114.25840 | 33826 ft | 379 kts | 250° |
| 2026-04-24 23:38 | 35.23959 | -114.31791 | 33790 ft | 379 kts | 250° |
| 2026-04-24 23:38 | 35.21912 | -114.37703 | 33776 ft | 378 kts | 250° |
| 2026-04-24 23:39 | 35.19867 | -114.43602 | 33764 ft | 378 kts | 250° |
| 2026-04-24 23:39 | 35.17807 | -114.49529 | 33769 ft | 378 kts | 250° |
| 2026-04-24 23:40 | 35.15749 | -114.55440 | 33766 ft | 378 kts | 250° |
| 2026-04-24 23:40 | 35.13702 | -114.61309 | 33761 ft | 377 kts | 250° |
| 2026-04-24 23:41 | 35.11655 | -114.67191 | 33767 ft | 376 kts | 250° |
| 2026-04-24 23:41 | 35.09619 | -114.73058 | 33764 ft | 375 kts | 249° |
| 2026-04-24 23:42 | 35.07566 | -114.78955 | 33764 ft | 375 kts | 249° |
| 2026-04-24 23:42 | 35.05530 | -114.84792 | 33771 ft | 375 kts | 249° |
| 2026-04-24 23:43 | 35.03481 | -114.90654 | 33776 ft | 375 kts | 249° |
| 2026-04-24 23:43 | 35.01294 | -114.96449 | 33783 ft | 377 kts | 247° |
| 2026-04-24 23:44 | 34.99031 | -115.02225 | 33833 ft | 376 kts | 247° |
| 2026-04-24 23:44 | 34.96821 | -115.07926 | 33806 ft | 366 kts | 247° |
| 2026-04-24 23:45 | 34.94655 | -115.13526 | 33809 ft | 367 kts | 247° |
| 2026-04-24 23:45 | 34.92474 | -115.19163 | 33813 ft | 368 kts | 247° |
| 2026-04-24 23:46 | 34.90282 | -115.24814 | 33818 ft | 368 kts | 247° |
| 2026-04-24 23:46 | 34.88097 | -115.30437 | 33814 ft | 368 kts | 247° |
| 2026-04-24 23:47 | 34.85960 | -115.35916 | 33815 ft | 344 kts | 247° |
| 2026-04-24 23:47 | 34.84954 | -115.38489 | 33815 ft | 329 kts | 247° |
| 2026-04-24 23:47 | 34.83966 | -115.41022 | 33818 ft | 335 kts | 247° |
| 2026-04-24 23:48 | 34.81949 | -115.46204 | 33813 ft | 339 kts | 247° |
| 2026-04-24 23:48 | 34.79922 | -115.51385 | 33818 ft | 339 kts | 247° |
| 2026-04-24 23:49 | 34.78912 | -115.53962 | 33574 ft | 336 kts | 247° |
| 2026-04-24 23:49 | 34.77907 | -115.56526 | 33029 ft | 335 kts | 247° |
| 2026-04-24 23:49 | 34.76891 | -115.59121 | 31895 ft | 346 kts | 247° |
| 2026-04-24 23:49 | 34.75834 | -115.61825 | 30429 ft | 365 kts | 247° |
| 2026-04-24 23:50 | 34.74716 | -115.64682 | 28658 ft | 385 kts | 247° |
| 2026-04-24 23:50 | 34.73534 | -115.67689 | 27047 ft | 401 kts | 247° |
| 2026-04-24 23:50 | 34.72316 | -115.70780 | 25737 ft | 408 kts | 247° |
| 2026-04-24 23:50 | 34.71101 | -115.73856 | 24860 ft | 406 kts | 247° |
| 2026-04-24 23:51 | 34.69895 | -115.76904 | 24359 ft | 394 kts | 248° |
| 2026-04-24 23:51 | 34.68728 | -115.79847 | 24068 ft | 377 kts | 248° |
| 2026-04-24 23:51 | 34.67615 | -115.82657 | 23901 ft | 360 kts | 248° |
| 2026-04-24 23:51 | 34.66554 | -115.85335 | 23801 ft | 342 kts | 248° |
| 2026-04-24 23:52 | 34.65551 | -115.87863 | 23799 ft | 322 kts | 248° |
| 2026-04-24 23:52 | 34.64607 | -115.90239 | 23799 ft | 303 kts | 248° |
| 2026-04-24 23:52 | 34.63719 | -115.92478 | 23794 ft | 286 kts | 248° |
| 2026-04-24 23:52 | 34.62871 | -115.94620 | 23801 ft | 282 kts | 249° |
| 2026-04-24 23:53 | 34.62304 | -115.96062 | 23800 ft | 286 kts | 249° |
| 2026-04-24 23:53 | 34.61161 | -115.98958 | 23803 ft | 286 kts | 248° |
| 2026-04-24 23:53 | 34.60299 | -116.01132 | 23804 ft | 286 kts | 248° |
| 2026-04-24 23:53 | 34.59435 | -116.03306 | 23812 ft | 286 kts | 248° |
| 2026-04-24 23:54 | 34.58570 | -116.05483 | 23815 ft | 286 kts | 248° |
| 2026-04-24 23:54 | 34.57999 | -116.06919 | 23819 ft | 285 kts | 248° |
| 2026-04-24 23:54 | 34.57135 | -116.09090 | 23823 ft | 286 kts | 248° |
| 2026-04-24 23:54 | 34.56275 | -116.11250 | 23836 ft | 285 kts | 248° |
| 2026-04-24 23:55 | 34.55412 | -116.13415 | 23829 ft | 285 kts | 248° |
| 2026-04-24 23:55 | 34.54545 | -116.15589 | 23831 ft | 286 kts | 248° |
| 2026-04-24 23:55 | 34.53680 | -116.17756 | 23835 ft | 285 kts | 248° |
| 2026-04-24 23:55 | 34.52813 | -116.19928 | 23838 ft | 287 kts | 248° |
| 2026-04-24 23:56 | 34.51943 | -116.22108 | 23840 ft | 287 kts | 248° |
| 2026-04-24 23:56 | 34.51082 | -116.24260 | 23846 ft | 286 kts | 248° |
| 2026-04-24 23:56 | 34.50210 | -116.26433 | 23843 ft | 286 kts | 248° |
| 2026-04-24 23:56 | 34.49338 | -116.28608 | 23843 ft | 286 kts | 248° |
| 2026-04-24 23:57 | 34.48475 | -116.30786 | 23844 ft | 286 kts | 249° |
| 2026-04-24 23:57 | 34.47654 | -116.32979 | 23840 ft | 286 kts | 250° |
| 2026-04-24 23:57 | 34.46844 | -116.35187 | 23845 ft | 287 kts | 250° |
| 2026-04-24 23:57 | 34.46031 | -116.37395 | 23836 ft | 286 kts | 250° |
| 2026-04-24 23:58 | 34.45216 | -116.39592 | 23837 ft | 286 kts | 249° |
| 2026-04-24 23:58 | 34.44394 | -116.41790 | 23833 ft | 286 kts | 249° |
| 2026-04-24 23:58 | 34.43583 | -116.43951 | 23829 ft | 284 kts | 249° |
| 2026-04-24 23:58 | 34.42759 | -116.46146 | 23825 ft | 288 kts | 249° |
| 2026-04-24 23:59 | 34.41928 | -116.48358 | 23817 ft | 287 kts | 249° |
| 2026-04-24 23:59 | 34.41102 | -116.50549 | 23814 ft | 286 kts | 249° |
| 2026-04-24 23:59 | 34.40275 | -116.52747 | 23812 ft | 287 kts | 249° |
| 2026-04-24 23:59 | 34.39450 | -116.54935 | 23811 ft | 284 kts | 249° |
| 2026-04-25 00:00 | 34.38623 | -116.57134 | 23808 ft | 288 kts | 249° |
| 2026-04-25 00:00 | 34.37791 | -116.59342 | 23809 ft | 287 kts | 249° |
| 2026-04-25 00:00 | 34.36972 | -116.61511 | 23809 ft | 287 kts | 249° |
| 2026-04-25 00:00 | 34.36142 | -116.63708 | 23809 ft | 287 kts | 249° |
| 2026-04-25 00:01 | 34.35312 | -116.65904 | 23816 ft | 287 kts | 249° |
| 2026-04-25 00:01 | 34.34480 | -116.68104 | 23812 ft | 287 kts | 249° |
| 2026-04-25 00:01 | 34.33648 | -116.70304 | 23805 ft | 288 kts | 249° |
| 2026-04-25 00:01 | 34.32810 | -116.72521 | 23616 ft | 291 kts | 249° |
| 2026-04-25 00:02 | 34.31963 | -116.74761 | 23068 ft | 292 kts | 249° |
| 2026-04-25 00:02 | 34.31107 | -116.77022 | 22283 ft | 298 kts | 249° |
| 2026-04-25 00:02 | 34.30238 | -116.79319 | 21508 ft | 302 kts | 249° |
| 2026-04-25 00:02 | 34.29358 | -116.81641 | 20762 ft | 305 kts | 248° |
| 2026-04-25 00:03 | 34.28481 | -116.83964 | 20037 ft | 309 kts | 248° |
| 2026-04-25 00:03 | 34.27580 | -116.86342 | 19325 ft | 313 kts | 248° |
| 2026-04-25 00:03 | 34.26666 | -116.88752 | 18639 ft | 316 kts | 248° |
| 2026-04-25 00:03 | 34.25743 | -116.91177 | 17933 ft | 319 kts | 247° |
| 2026-04-25 00:04 | 34.24809 | -116.93628 | 17239 ft | 320 kts | 247° |
| 2026-04-25 00:04 | 34.23892 | -116.96029 | 16965 ft | 309 kts | 247° |
| 2026-04-25 00:04 | 34.23011 | -116.98329 | 16879 ft | 292 kts | 247° |
| 2026-04-25 00:04 | 34.22179 | -117.00495 | 16875 ft | 276 kts | 247° |
| 2026-04-25 00:05 | 34.21401 | -117.02523 | 16878 ft | 258 kts | 247° |
| 2026-04-25 00:05 | 34.20645 | -117.04502 | 16896 ft | 265 kts | 247° |
| 2026-04-25 00:05 | 34.19871 | -117.06519 | 16897 ft | 263 kts | 247° |
| 2026-04-25 00:05 | 34.19115 | -117.08482 | 16897 ft | 260 kts | 247° |
| 2026-04-25 00:06 | 34.18349 | -117.10476 | 16901 ft | 263 kts | 247° |
| 2026-04-25 00:06 | 34.17580 | -117.12483 | 16907 ft | 262 kts | 247° |
| 2026-04-25 00:06 | 34.16812 | -117.14487 | 16825 ft | 263 kts | 248° |
| 2026-04-25 00:06 | 34.16164 | -117.16556 | 16439 ft | 265 kts | 253° |
| 2026-04-25 00:07 | 34.15597 | -117.18677 | 16009 ft | 266 kts | 253° |
| 2026-04-25 00:07 | 34.15022 | -117.20799 | 15567 ft | 266 kts | 253° |
| 2026-04-25 00:07 | 34.14441 | -117.22914 | 15128 ft | 266 kts | 252° |
| 2026-04-25 00:07 | 34.13860 | -117.25024 | 14698 ft | 265 kts | 252° |
| 2026-04-25 00:08 | 34.13277 | -117.27136 | 14271 ft | 265 kts | 252° |
| 2026-04-25 00:08 | 34.12696 | -117.29244 | 13848 ft | 264 kts | 252° |
| 2026-04-25 00:08 | 34.12116 | -117.31346 | 13393 ft | 264 kts | 252° |
| 2026-04-25 00:08 | 34.11538 | -117.33438 | 13019 ft | 259 kts | 252° |
| 2026-04-25 00:09 | 34.10981 | -117.35456 | 12909 ft | 248 kts | 252° |
| 2026-04-25 00:09 | 34.10428 | -117.37454 | 12904 ft | 254 kts | 252° |
| 2026-04-25 00:09 | 34.09899 | -117.39485 | 12902 ft | 253 kts | 253° |
| 2026-04-25 00:09 | 34.09407 | -117.41486 | 12904 ft | 252 kts | 254° |
| 2026-04-25 00:10 | 34.08910 | -117.43515 | 12905 ft | 252 kts | 254° |
| 2026-04-25 00:10 | 34.08409 | -117.45546 | 12913 ft | 253 kts | 253° |
| 2026-04-25 00:10 | 34.07903 | -117.47579 | 12914 ft | 252 kts | 253° |
| 2026-04-25 00:10 | 34.07400 | -117.49610 | 12911 ft | 253 kts | 255° |
| 2026-04-25 00:11 | 34.07051 | -117.51699 | 12705 ft | 255 kts | 260° |
| 2026-04-25 00:11 | 34.06748 | -117.53820 | 12218 ft | 258 kts | 260° |
| 2026-04-25 00:11 | 34.06642 | -117.54548 | 12049 ft | 259 kts | 260° |
| 2026-04-25 00:12 | 34.05458 | -117.62627 | 10234 ft | 266 kts | 259° |
| 2026-04-25 00:12 | 34.05131 | -117.64842 | 9756 ft | 268 kts | 259° |
| 2026-04-25 00:12 | 34.04802 | -117.67064 | 9236 ft | 269 kts | 259° |
| 2026-04-25 00:13 | 34.04474 | -117.69286 | 8735 ft | 270 kts | 259° |
| 2026-04-25 00:13 | 34.04141 | -117.71523 | 8231 ft | 271 kts | 259° |
| 2026-04-25 00:13 | 34.03814 | -117.73732 | 7744 ft | 272 kts | 259° |
| 2026-04-25 00:13 | 34.03479 | -117.75986 | 7264 ft | 273 kts | 259° |
| 2026-04-25 00:14 | 34.03141 | -117.78249 | 6774 ft | 275 kts | 259° |
| 2026-04-25 00:14 | 34.02801 | -117.80526 | 6302 ft | 276 kts | 259° |
| 2026-04-25 00:14 | 34.02461 | -117.82805 | 5795 ft | 277 kts | 259° |
| 2026-04-25 00:14 | 34.02119 | -117.85103 | 5293 ft | 278 kts | 259° |
| 2026-04-25 00:15 | 34.01776 | -117.87399 | 4844 ft | 277 kts | 260° |
| 2026-04-25 00:15 | 34.01447 | -117.89592 | 4702 ft | 256 kts | 260° |
| 2026-04-25 00:15 | 34.01140 | -117.91648 | 4256 ft | 247 kts | 259° |
| 2026-04-25 00:15 | 34.00840 | -117.93648 | 3985 ft | 235 kts | 259° |
| 2026-04-25 00:16 | 34.00559 | -117.95522 | 3909 ft | 218 kts | 259° |
| 2026-04-25 00:16 | 34.00302 | -117.97229 | 3924 ft | 201 kts | 259° |
| 2026-04-25 00:16 | 34.00059 | -117.98844 | 3919 ft | 190 kts | 259° |
| 2026-04-25 00:16 | 33.99816 | -118.00450 | 3945 ft | 202 kts | 258° |
| 2026-04-25 00:17 | 33.99568 | -118.02096 | 3922 ft | 197 kts | 258° |
| 2026-04-25 00:17 | 33.99321 | -118.03724 | 3928 ft | 200 kts | 258° |
| 2026-04-25 00:17 | 33.99070 | -118.05368 | 3923 ft | 198 kts | 258° |
| 2026-04-25 00:17 | 33.98820 | -118.07008 | 3926 ft | 199 kts | 258° |
| 2026-04-25 00:18 | 33.98572 | -118.08642 | 3924 ft | 199 kts | 258° |
| 2026-04-25 00:18 | 33.98322 | -118.10289 | 3925 ft | 200 kts | 258° |
| 2026-04-25 00:18 | 33.98073 | -118.11929 | 3926 ft | 199 kts | 258° |
| 2026-04-25 00:18 | 33.97879 | -118.13589 | 3928 ft | 200 kts | 263° |
| 2026-04-25 00:19 | 33.97744 | -118.15258 | 3925 ft | 199 kts | 263° |
| 2026-04-25 00:19 | 33.97584 | -118.16918 | 3934 ft | 200 kts | 262° |
| 2026-04-25 00:19 | 33.97415 | -118.18586 | 3932 ft | 200 kts | 262° |
| 2026-04-25 00:19 | 33.97245 | -118.20249 | 3932 ft | 200 kts | 262° |
| 2026-04-25 00:20 | 33.97077 | -118.21897 | 3933 ft | 201 kts | 262° |
| 2026-04-25 00:20 | 33.96912 | -118.23511 | 3937 ft | 187 kts | 262° |
| 2026-04-25 00:20 | 33.96757 | -118.25026 | 3937 ft | 179 kts | 262° |
| 2026-04-25 00:20 | 33.96605 | -118.26520 | 3908 ft | 179 kts | 262° |
| 2026-04-25 00:21 | 33.96453 | -118.28004 | 3676 ft | 179 kts | 262° |
| 2026-04-25 00:21 | 33.96302 | -118.29486 | 3190 ft | 179 kts | 261° |
| 2026-04-25 00:21 | 33.96151 | -118.30973 | 2539 ft | 178 kts | 261° |
| 2026-04-25 00:21 | 33.96002 | -118.32438 | 1899 ft | 175 kts | 261° |
| 2026-04-25 00:22 | 33.95854 | -118.33883 | 1351 ft | 165 kts | 261° |
| 2026-04-25 00:22 | 33.95720 | -118.35197 | 1008 ft | 160 kts | 261° |
| 2026-04-25 00:22 | 33.95577 | -118.36563 | 753 ft | 165 kts | 263° |
| 2026-04-25 00:22 | 33.95441 | -118.37910 | 533 ft | 158 kts | 263° |
| 2026-04-25 00:23 | 33.95306 | -118.39247 | 323 ft | 164 kts | 263° |
| 2026-04-25 00:23 | 33.95168 | -118.40580 | 203 ft | 162 kts | 264° |
| 2026-04-25 00:23 | 33.95041 | -118.41834 | 126 ft | 123 kts | 262° |
| 2026-04-25 00:23 | 33.94966 | -118.42465 | 123 ft | 53 kts | 252° |
| 2026-04-25 00:24 | 33.94815 | -118.42698 | 122 ft | 19 kts | 224° |
| 2026-04-25 00:24 | 33.94657 | -118.42780 | 124 ft | 27 kts | 182° |
| 2026-04-25 00:24 | 33.94425 | -118.42734 | 124 ft | 39 kts | 174° |
| 2026-04-25 00:24 | 33.94350 | -118.42770 | 124 ft | 0 kts | 247° |
| 2026-04-25 00:25 | 33.94337 | -118.42842 | 126 ft | 17 kts | 264° |
| 2026-04-25 00:25 | 33.94335 | -118.42860 | 125 ft | 0 kts | 264° |